createdAt,value
2022-12-25T00:01:23.663Z,6.42
2022-12-25T00:03:51.502Z,6.51
2022-12-25T00:06:18.972Z,6.50
2022-12-25T00:08:46.078Z,6.59
2022-12-25T00:11:16.058Z,6.76
2022-12-25T00:13:43.383Z,6.78
2022-12-25T00:16:15.133Z,6.86
2022-12-25T00:18:43.783Z,6.96
2022-12-25T00:21:11.421Z,7.07
2022-12-25T00:23:38.550Z,7.19
2022-12-25T00:26:07.657Z,7.29
2022-12-25T00:28:36.130Z,7.46
2022-12-25T00:31:08.482Z,7.17
2022-12-25T00:33:37.250Z,7.03
2022-12-25T00:36:06.378Z,6.99
2022-12-25T00:38:35.451Z,6.92
2022-12-25T00:41:11.610Z,6.85
2022-12-25T00:43:39.701Z,6.83
2022-12-25T00:46:07.699Z,6.92
2022-12-25T00:48:35.778Z,6.76
2022-12-25T00:51:05.803Z,6.79
2022-12-25T00:53:33.349Z,6.79
2022-12-25T00:56:05.281Z,6.84
2022-12-25T00:58:33.897Z,6.88
2022-12-25T01:01:01.229Z,7.05
2022-12-25T01:03:28.427Z,7.15
2022-12-25T01:06:00.914Z,7.27
2022-12-25T01:08:30.045Z,7.23
2022-12-25T01:10:59.343Z,7.20
2022-12-25T01:13:27.910Z,7.10
2022-12-25T01:15:55.099Z,6.92
2022-12-25T01:18:23.570Z,6.76
2022-12-25T01:20:50.851Z,6.62
2022-12-25T01:23:18.009Z,6.41
2022-12-25T01:25:45.969Z,6.30
2022-12-25T01:28:13.421Z,6.20
2022-12-25T01:30:40.636Z,6.10
2022-12-25T01:33:08.106Z,5.98
2022-12-25T01:35:35.260Z,6.00
2022-12-25T01:38:02.398Z,6.10
2022-12-25T01:40:29.825Z,5.98
2022-12-25T01:42:58.276Z,5.94
2022-12-25T01:45:41.010Z,5.99
2022-12-25T01:48:13.491Z,6.20
2022-12-25T01:50:44.667Z,6.39
2022-12-25T01:53:12.229Z,6.48
2022-12-25T01:55:40.315Z,6.60
2022-12-25T01:58:07.566Z,6.70
2022-12-25T02:00:35.035Z,6.82
2022-12-25T02:03:02.497Z,6.82
2022-12-25T02:05:32.196Z,6.86
2022-12-25T02:08:02.483Z,6.84
2022-12-25T02:10:30.061Z,6.85
2022-12-25T02:12:57.264Z,6.87
2022-12-25T02:15:30.177Z,6.87
2022-12-25T02:18:22.356Z,6.88
2022-12-25T02:21:08.376Z,6.84
2022-12-25T02:23:45.367Z,6.74
2022-12-25T02:26:24.548Z,6.66
2022-12-25T02:29:17.396Z,6.64
2022-12-25T02:31:48.737Z,6.57
2022-12-25T02:34:22.044Z,6.56
2022-12-25T02:36:58.149Z,6.50
2022-12-25T02:39:46.701Z,6.48
2022-12-25T02:42:19.597Z,6.44
2022-12-25T02:45:08.249Z,6.44
2022-12-25T02:47:54.952Z,6.32
2022-12-25T02:50:41.717Z,6.39
2022-12-25T02:53:27.939Z,6.50
2022-12-25T02:56:14.646Z,6.61
2022-12-25T02:59:01.426Z,6.77
2022-12-25T03:01:48.546Z,6.79
2022-12-25T03:04:37.552Z,6.75
2022-12-25T03:07:15.445Z,6.71
2022-12-25T03:10:06.374Z,6.78
2022-12-25T03:12:56.786Z,6.85
2022-12-25T03:15:42.516Z,6.91
2022-12-25T03:18:15.491Z,6.91
2022-12-25T03:21:01.363Z,6.92
2022-12-25T03:23:50.311Z,6.95
2022-12-25T03:26:36.715Z,6.94
2022-12-25T03:29:04.176Z,6.84
2022-12-25T03:31:37.049Z,6.84
2022-12-25T03:34:48.095Z,6.81
2022-12-25T03:37:30.035Z,6.80
2022-12-25T03:40:26.747Z,6.75
2022-12-25T03:43:17.142Z,6.75
2022-12-25T03:46:08.700Z,6.69
2022-12-25T03:48:59.602Z,6.60
2022-12-25T03:51:49.786Z,6.52
2022-12-25T03:54:38.220Z,6.51
2022-12-25T03:57:24.675Z,6.51
2022-12-25T04:00:10.576Z,6.56
2022-12-25T04:02:56.876Z,6.59
2022-12-25T04:05:42.765Z,6.68
2022-12-25T04:08:28.783Z,6.67
2022-12-25T04:11:14.282Z,6.72
2022-12-25T04:14:00.282Z,6.71
2022-12-25T04:16:45.728Z,6.75
2022-12-25T04:19:31.656Z,6.78
2022-12-25T04:22:17.090Z,6.83
2022-12-25T04:25:03.016Z,6.88
2022-12-25T04:27:49.536Z,6.90
2022-12-25T04:30:35.572Z,6.90
2022-12-25T04:33:21.244Z,6.90
2022-12-25T04:36:07.749Z,6.87
2022-12-25T04:38:35.429Z,6.83
2022-12-25T04:41:03.092Z,6.79
2022-12-25T04:43:30.470Z,6.75
2022-12-25T04:45:59.584Z,6.72
2022-12-25T04:48:27.733Z,6.66
2022-12-25T04:50:55.116Z,6.78
2022-12-25T04:53:22.687Z,6.85
2022-12-25T04:55:50.158Z,6.85
2022-12-25T04:58:17.303Z,6.86
2022-12-25T05:00:44.432Z,6.95
2022-12-25T05:03:11.983Z,6.99
2022-12-25T05:05:40.623Z,7.07
2022-12-25T05:08:07.864Z,7.10
2022-12-25T05:10:35.323Z,7.13
2022-12-25T05:13:02.441Z,7.16
2022-12-25T05:15:29.527Z,7.20
2022-12-25T05:17:56.981Z,7.29
2022-12-25T05:20:24.238Z,7.24
2022-12-25T05:22:51.308Z,7.25
2022-12-25T05:25:18.641Z,7.32
2022-12-25T05:27:50.311Z,7.41
2022-12-25T05:30:21.300Z,7.49
2022-12-25T05:32:48.684Z,7.47
2022-12-25T05:35:15.891Z,7.47
2022-12-25T05:37:43.330Z,7.49
2022-12-25T05:40:11.006Z,7.58
2022-12-25T05:42:38.142Z,7.45
2022-12-25T05:45:06.157Z,7.26
2022-12-25T05:47:33.306Z,7.13
2022-12-25T05:50:00.421Z,7.19
2022-12-25T05:52:32.028Z,7.07
2022-12-25T05:54:59.931Z,7.01
2022-12-25T05:57:31.536Z,6.68
2022-12-25T05:59:59.066Z,6.59
2022-12-25T06:02:26.567Z,6.41
2022-12-25T06:04:54.105Z,6.23
2022-12-25T06:07:21.356Z,6.04
2022-12-25T06:09:48.678Z,5.90
2022-12-25T06:12:16.163Z,5.82
2022-12-25T06:14:43.314Z,5.75
2022-12-25T06:17:10.594Z,5.59
2022-12-25T06:19:38.159Z,5.52
2022-12-25T06:22:05.312Z,5.49
2022-12-25T06:24:32.565Z,5.45
2022-12-25T06:27:00.031Z,5.35
2022-12-25T06:29:27.142Z,5.34
2022-12-25T06:31:57.282Z,5.30
2022-12-25T06:34:24.920Z,5.41
2022-12-25T06:36:52.088Z,5.60
2022-12-25T06:39:19.472Z,5.73
2022-12-25T06:41:47.695Z,5.77
2022-12-25T06:44:14.764Z,5.79
2022-12-25T06:46:41.956Z,5.80
2022-12-25T06:49:10.083Z,5.75
2022-12-25T06:51:37.259Z,5.69
2022-12-25T06:54:04.678Z,5.63
2022-12-25T06:56:32.850Z,5.68
2022-12-25T06:59:10.081Z,5.62
2022-12-25T07:01:56.892Z,5.79
2022-12-25T07:04:35.631Z,5.69
2022-12-25T07:07:08.431Z,5.53
2022-12-25T07:09:36.386Z,5.42
2022-12-25T07:12:24.298Z,5.35
2022-12-25T07:14:54.112Z,5.40
2022-12-25T07:17:22.295Z,5.32
2022-12-25T07:19:49.423Z,5.23
2022-12-25T07:22:17.020Z,5.25
2022-12-25T07:24:44.408Z,5.14
2022-12-25T07:27:11.508Z,5.18
2022-12-25T07:29:38.631Z,5.41
2022-12-25T07:32:06.159Z,5.38
2022-12-25T07:34:33.417Z,5.33
2022-12-25T07:37:00.507Z,5.48
2022-12-25T07:39:27.993Z,5.69
2022-12-25T07:41:55.123Z,5.73
2022-12-25T07:44:22.233Z,5.81
2022-12-25T07:46:49.566Z,5.83
2022-12-25T07:49:16.628Z,5.89
2022-12-25T07:51:43.712Z,5.92
2022-12-25T07:54:11.071Z,5.82
2022-12-25T07:56:38.200Z,5.89
2022-12-25T07:59:05.263Z,5.96
2022-12-25T08:01:32.763Z,6.19
2022-12-25T08:04:01.865Z,6.47
2022-12-25T08:06:34.564Z,6.67
2022-12-25T08:09:07.627Z,6.98
2022-12-25T08:11:34.855Z,7.53
2022-12-25T08:14:02.337Z,7.90
2022-12-25T08:16:29.464Z,8.11
2022-12-25T08:18:56.533Z,8.15
2022-12-25T08:21:23.922Z,8.35
2022-12-25T08:23:51.086Z,8.50
2022-12-25T08:26:23.709Z,8.76
2022-12-25T08:28:51.380Z,9.08
2022-12-25T08:31:26.350Z,9.24
2022-12-25T08:33:55.543Z,8.94
2022-12-25T08:36:23.015Z,8.68
2022-12-25T08:38:50.284Z,8.71
2022-12-25T08:41:18.118Z,8.94
2022-12-25T08:43:46.775Z,9.26
2022-12-25T08:46:14.212Z,9.48
2022-12-25T08:48:43.591Z,9.42
2022-12-25T08:51:17.128Z,9.45
2022-12-25T08:53:45.703Z,9.49
2022-12-25T08:56:13.360Z,9.54
2022-12-25T08:58:40.729Z,9.49
2022-12-25T09:01:08.261Z,9.48
2022-12-25T09:03:35.708Z,9.64
2022-12-25T09:06:04.716Z,9.54
2022-12-25T09:08:32.389Z,9.58
2022-12-25T09:11:04.326Z,9.62
2022-12-25T09:13:31.678Z,9.77
2022-12-25T09:15:58.854Z,9.70
2022-12-25T09:18:26.351Z,9.64
2022-12-25T09:21:01.185Z,9.65
2022-12-25T09:23:28.734Z,9.62
2022-12-25T09:25:59.084Z,9.70
2022-12-25T09:28:26.256Z,9.81
2022-12-25T09:30:53.690Z,9.98
2022-12-25T09:33:21.814Z,10.13
2022-12-25T09:35:56.599Z,10.18
2022-12-25T09:38:24.574Z,10.29
2022-12-25T09:41:21.092Z,10.43
2022-12-25T09:43:56.568Z,10.55
2022-12-25T09:46:30.196Z,10.55
2022-12-25T09:49:13.199Z,10.68
2022-12-25T09:51:41.118Z,10.74
2022-12-25T09:54:19.984Z,10.82
2022-12-25T09:56:48.192Z,10.93
2022-12-25T09:59:25.499Z,11.05
2022-12-25T10:02:07.831Z,11.07
2022-12-25T10:05:09.770Z,11.10
2022-12-25T10:08:02.541Z,11.13
2022-12-25T10:10:35.676Z,11.12
2022-12-25T10:13:07.800Z,11.13
2022-12-25T10:15:48.030Z,11.23
2022-12-25T10:18:31.184Z,11.28
2022-12-25T10:21:00.943Z,11.38
2022-12-25T10:23:33.078Z,11.42
2022-12-25T10:26:00.739Z,11.52
2022-12-25T10:28:38.856Z,11.58
2022-12-25T10:31:21.122Z,11.39
2022-12-25T10:33:52.867Z,11.29
2022-12-25T10:36:30.621Z,11.50
2022-12-25T10:38:58.039Z,11.59
2022-12-25T10:41:35.560Z,11.68
2022-12-25T10:44:21.753Z,11.76
2022-12-25T10:46:54.712Z,11.88
2022-12-25T10:49:24.122Z,11.86
2022-12-25T10:51:52.121Z,11.90
2022-12-25T10:54:35.174Z,12.04
2022-12-25T10:57:04.108Z,12.10
2022-12-25T10:59:41.948Z,12.23
2022-12-25T11:02:24.166Z,12.28
2022-12-25T11:04:58.140Z,12.45
2022-12-25T11:07:25.624Z,12.30
2022-12-25T11:09:59.299Z,12.48
2022-12-25T11:12:36.688Z,12.58
2022-12-25T11:15:26.359Z,12.52
2022-12-25T11:17:53.792Z,12.64
2022-12-25T11:20:21.768Z,12.53
2022-12-25T11:22:50.095Z,12.59
2022-12-25T11:25:26.231Z,12.70
2022-12-25T11:28:01.587Z,12.80
2022-12-25T11:30:30.280Z,12.73
2022-12-25T11:33:10.878Z,12.79
2022-12-25T11:35:52.898Z,12.87
2022-12-25T11:38:20.064Z,12.71
2022-12-25T11:40:52.721Z,12.71
2022-12-25T11:43:42.180Z,12.71
2022-12-25T11:46:32.943Z,12.67
2022-12-25T11:49:01.770Z,12.62
2022-12-25T11:51:33.764Z,12.61
2022-12-25T11:54:07.981Z,12.69
2022-12-25T11:56:36.985Z,12.80
2022-12-25T11:59:18.775Z,12.84
2022-12-25T12:01:52.005Z,12.75
2022-12-25T12:04:30.867Z,12.63
2022-12-25T12:07:05.315Z,12.72
2022-12-25T12:09:56.694Z,12.83
2022-12-25T12:12:38.195Z,12.79
2022-12-25T12:15:40.121Z,12.91
2022-12-25T12:18:22.117Z,12.85
2022-12-25T12:21:09.973Z,12.86
2022-12-25T12:24:06.573Z,12.95
2022-12-25T12:26:38.007Z,12.94
2022-12-25T12:29:07.903Z,12.88
2022-12-25T12:31:41.785Z,12.83
2022-12-25T12:34:27.869Z,12.81
2022-12-25T12:37:19.997Z,12.81
2022-12-25T12:39:54.370Z,12.76
2022-12-25T12:42:30.752Z,12.70
2022-12-25T12:45:09.819Z,12.76
2022-12-25T12:47:48.266Z,12.72
2022-12-25T12:50:30.638Z,12.63
2022-12-25T12:52:58.561Z,12.57
2022-12-25T12:55:34.140Z,12.55
2022-12-25T12:58:06.065Z,12.48
2022-12-25T13:00:40.134Z,12.45
2022-12-25T13:03:10.204Z,12.36
2022-12-25T13:05:46.087Z,12.24
2022-12-25T13:08:25.683Z,12.25
2022-12-25T13:11:24.365Z,12.38
2022-12-25T13:13:54.246Z,12.32
2022-12-25T13:16:24.446Z,12.27
2022-12-25T13:18:52.937Z,12.25
2022-12-25T13:21:28.481Z,12.17
2022-12-25T13:24:04.829Z,12.14
2022-12-25T13:26:32.013Z,12.29
2022-12-25T13:28:59.538Z,12.17
2022-12-25T13:31:28.734Z,12.03
2022-12-25T13:34:03.161Z,11.94
2022-12-25T13:36:35.866Z,11.97
2022-12-25T13:39:03.784Z,11.95
2022-12-25T13:41:55.423Z,11.74
2022-12-25T13:44:25.189Z,11.77
2022-12-25T13:46:52.884Z,11.82
2022-12-25T13:49:22.481Z,11.78
2022-12-25T13:51:50.425Z,11.84
2022-12-25T13:54:18.699Z,11.95
2022-12-25T13:56:51.126Z,11.77
2022-12-25T13:59:21.334Z,11.81
2022-12-25T14:01:49.903Z,11.87
2022-12-25T14:04:20.453Z,11.76
2022-12-25T14:06:51.673Z,11.65
2022-12-25T14:09:19.558Z,11.34
2022-12-25T14:11:50.519Z,11.11
2022-12-25T14:14:21.551Z,10.91
2022-12-25T14:16:50.356Z,10.74
2022-12-25T14:19:30.617Z,10.49
2022-12-25T14:21:58.055Z,10.33
2022-12-25T14:24:27.286Z,10.24
2022-12-25T14:27:00.348Z,10.10
2022-12-25T14:29:32.697Z,9.96
2022-12-25T14:32:04.056Z,9.78
2022-12-25T14:34:32.389Z,9.65
2022-12-25T14:37:00.686Z,9.47
2022-12-25T14:39:35.296Z,9.38
2022-12-25T14:42:22.258Z,9.19
2022-12-25T14:45:20.834Z,9.13
2022-12-25T14:47:56.309Z,9.05
2022-12-25T14:50:30.620Z,8.90
2022-12-25T14:52:59.083Z,8.83
2022-12-25T14:55:28.428Z,8.66
2022-12-25T14:58:06.242Z,8.51
2022-12-25T15:00:38.207Z,8.53
2022-12-25T15:03:18.640Z,8.43
2022-12-25T15:05:46.104Z,8.28
2022-12-25T15:08:23.268Z,8.11
2022-12-25T15:11:00.999Z,8.09
2022-12-25T15:13:30.320Z,8.02
2022-12-25T15:16:12.309Z,7.90
2022-12-25T15:18:44.239Z,7.86
2022-12-25T15:21:23.468Z,7.84
2022-12-25T15:23:50.642Z,7.77
2022-12-25T15:26:18.099Z,7.75
2022-12-25T15:28:45.303Z,7.74
2022-12-25T15:31:22.049Z,7.66
2022-12-25T15:33:55.611Z,7.49
2022-12-25T15:36:23.543Z,7.47
2022-12-25T15:38:51.671Z,7.42
2022-12-25T15:41:48.800Z,7.46
2022-12-25T15:44:16.791Z,7.41
2022-12-25T15:46:46.983Z,7.33
2022-12-25T15:49:15.150Z,7.37
2022-12-25T15:51:43.440Z,7.44
2022-12-25T15:54:11.055Z,7.51
2022-12-25T15:56:50.607Z,7.61
2022-12-25T15:59:19.540Z,7.68
2022-12-25T16:01:49.301Z,7.74
2022-12-25T16:04:16.980Z,7.78
2022-12-25T16:06:44.160Z,7.91
2022-12-25T16:09:11.892Z,7.91
2022-12-25T16:11:39.515Z,7.89
2022-12-25T16:14:07.084Z,7.90
2022-12-25T16:16:34.348Z,7.97
2022-12-25T16:19:01.971Z,8.01
2022-12-25T16:21:34.527Z,8.04
2022-12-25T16:24:01.976Z,8.07
2022-12-25T16:26:30.624Z,8.11
2022-12-25T16:29:01.166Z,8.20
2022-12-25T16:31:31.464Z,8.26
2022-12-25T16:33:58.828Z,8.30
2022-12-25T16:36:27.193Z,8.32
2022-12-25T16:38:54.802Z,8.26
2022-12-25T16:41:22.045Z,8.23
2022-12-25T16:43:51.840Z,8.22
2022-12-25T16:46:22.283Z,8.15
2022-12-25T16:48:49.556Z,8.12
2022-12-25T16:51:19.199Z,8.09
2022-12-25T16:53:47.196Z,8.06
2022-12-25T16:56:20.440Z,8.07
2022-12-25T16:58:48.180Z,8.08
2022-12-25T17:01:17.570Z,8.04
2022-12-25T17:03:45.457Z,8.10
2022-12-25T17:06:24.300Z,8.06
2022-12-25T17:08:53.058Z,8.09
2022-12-25T17:11:24.374Z,8.06
2022-12-25T17:13:51.658Z,8.11
2022-12-25T17:16:21.204Z,8.11
2022-12-25T17:18:49.637Z,8.13
2022-12-25T17:21:16.793Z,8.22
2022-12-25T17:23:45.092Z,8.22
2022-12-25T17:26:12.614Z,8.16
2022-12-25T17:28:39.796Z,8.20
2022-12-25T17:31:08.950Z,8.16
2022-12-25T17:33:37.879Z,8.18
2022-12-25T17:36:16.176Z,8.16
2022-12-25T17:38:44.540Z,8.20
2022-12-25T17:41:13.219Z,8.13
2022-12-25T17:43:42.091Z,8.02
2022-12-25T17:46:13.173Z,7.98
2022-12-25T17:48:43.389Z,7.86
2022-12-25T17:51:13.527Z,7.90
2022-12-25T17:53:42.839Z,7.86
2022-12-25T17:56:10.542Z,7.88
2022-12-25T17:58:38.351Z,7.94
2022-12-25T18:01:10.863Z,7.86
2022-12-25T18:03:38.707Z,7.94
2022-12-25T18:06:07.586Z,7.99
2022-12-25T18:08:39.272Z,7.97
2022-12-25T18:11:17.965Z,7.87
2022-12-25T18:13:48.414Z,7.83
2022-12-25T18:16:17.203Z,7.82
2022-12-25T18:18:51.508Z,7.72
2022-12-25T18:21:21.422Z,7.66
2022-12-25T18:23:48.886Z,7.74
2022-12-25T18:26:16.208Z,7.78
2022-12-25T18:28:44.022Z,7.73
2022-12-25T18:31:13.977Z,7.67
2022-12-25T18:33:41.757Z,7.65
2022-12-25T18:36:11.376Z,7.63
2022-12-25T18:38:41.696Z,7.52
2022-12-25T18:41:10.446Z,7.52
2022-12-25T18:43:54.413Z,7.53
2022-12-25T18:46:27.367Z,7.55
2022-12-25T18:48:56.015Z,7.55
2022-12-25T18:51:23.569Z,7.67
2022-12-25T18:53:51.288Z,7.75
2022-12-25T18:56:20.098Z,7.72
2022-12-25T18:58:48.070Z,7.73
2022-12-25T19:01:20.892Z,7.74
2022-12-25T19:03:49.370Z,7.70
2022-12-25T19:06:23.958Z,7.74
2022-12-25T19:08:51.273Z,7.80
2022-12-25T19:11:19.353Z,7.83
2022-12-25T19:13:46.584Z,7.85
2022-12-25T19:16:14.352Z,7.85
2022-12-25T19:18:44.438Z,7.93
2022-12-25T19:21:11.815Z,7.89
2022-12-25T19:23:39.352Z,7.93
2022-12-25T19:26:08.181Z,7.91
2022-12-25T19:28:36.200Z,7.93
2022-12-25T19:31:07.428Z,7.96
2022-12-25T19:33:35.908Z,8.02
2022-12-25T19:36:06.249Z,8.06
2022-12-25T19:38:33.430Z,8.15
2022-12-25T19:41:09.615Z,8.24
2022-12-25T19:43:38.946Z,8.25
2022-12-25T19:46:07.724Z,8.26
2022-12-25T19:48:35.030Z,8.18
2022-12-25T19:51:02.549Z,8.26
2022-12-25T19:53:30.076Z,8.44
2022-12-25T19:56:01.347Z,8.44
2022-12-25T19:58:29.736Z,8.55
2022-12-25T20:01:02.027Z,8.63
2022-12-25T20:03:29.570Z,8.58
2022-12-25T20:05:57.254Z,8.51
2022-12-25T20:08:24.857Z,8.47
2022-12-25T20:10:52.524Z,8.54
2022-12-25T20:13:20.193Z,8.63
2022-12-25T20:15:47.505Z,8.66
2022-12-25T20:18:17.832Z,8.71
2022-12-25T20:20:45.113Z,8.75
2022-12-25T20:23:12.297Z,8.76
2022-12-25T20:25:41.436Z,8.80
2022-12-25T20:28:09.303Z,8.71
2022-12-25T20:30:40.010Z,8.77
2022-12-25T20:33:07.555Z,8.86
2022-12-25T20:35:34.752Z,8.84
2022-12-25T20:38:02.026Z,8.79
2022-12-25T20:40:29.492Z,8.88
2022-12-25T20:42:56.752Z,8.90
2022-12-25T20:45:23.916Z,8.88
2022-12-25T20:47:51.392Z,8.92
2022-12-25T20:50:18.559Z,8.84
2022-12-25T20:52:45.720Z,8.85
2022-12-25T20:55:14.191Z,8.90
2022-12-25T20:57:41.355Z,8.88
2022-12-25T21:00:09.076Z,8.96
2022-12-25T21:02:37.960Z,9.08
2022-12-25T21:05:07.099Z,8.97
2022-12-25T21:07:34.281Z,8.90
2022-12-25T21:10:01.782Z,8.84
2022-12-25T21:12:28.932Z,8.80
2022-12-25T21:14:56.152Z,8.77
2022-12-25T21:17:23.639Z,8.79
2022-12-25T21:19:50.808Z,8.74
2022-12-25T21:22:17.988Z,8.70
2022-12-25T21:24:45.434Z,8.74
2022-12-25T21:27:12.575Z,8.74
2022-12-25T21:29:39.730Z,8.74
2022-12-25T21:32:25.774Z,8.75
2022-12-25T21:34:52.933Z,8.69
2022-12-25T21:37:20.472Z,8.69
2022-12-25T21:39:50.739Z,8.77
2022-12-25T21:42:17.874Z,8.94
2022-12-25T21:44:45.784Z,8.84
2022-12-25T21:47:12.962Z,8.84
2022-12-25T21:49:58.781Z,8.83
2022-12-25T21:52:26.229Z,8.80
2022-12-25T21:54:53.402Z,8.81
2022-12-25T21:57:20.587Z,8.79
2022-12-25T21:59:48.211Z,8.78
2022-12-25T22:02:15.379Z,8.77
2022-12-25T22:04:43.028Z,8.70
2022-12-25T22:07:18.846Z,8.71
2022-12-25T22:09:50.558Z,8.81
2022-12-25T22:12:37.772Z,8.75
2022-12-25T22:15:07.279Z,8.81
2022-12-25T22:17:55.104Z,8.99
2022-12-25T22:20:30.118Z,8.88
2022-12-25T22:22:58.152Z,8.80
2022-12-25T22:25:26.050Z,8.73
2022-12-25T22:27:53.611Z,8.83
2022-12-25T22:30:26.083Z,8.86
2022-12-25T22:32:53.837Z,8.90
2022-12-25T22:35:22.952Z,8.80
2022-12-25T22:37:50.234Z,8.76
2022-12-25T22:40:19.039Z,8.78
2022-12-25T22:42:46.292Z,8.79
2022-12-25T22:45:13.579Z,8.74
2022-12-25T22:47:41.577Z,8.71
2022-12-25T22:50:09.976Z,8.86
2022-12-25T22:52:37.523Z,8.89
2022-12-25T22:55:06.332Z,8.96
2022-12-25T22:57:33.517Z,8.93
2022-12-25T23:00:00.584Z,8.86
2022-12-25T23:02:28.279Z,8.80
2022-12-25T23:04:55.536Z,8.83
2022-12-25T23:07:22.628Z,8.87
2022-12-25T23:09:50.023Z,8.84
2022-12-25T23:12:35.972Z,8.87
2022-12-25T23:15:03.596Z,8.77
2022-12-25T23:17:49.137Z,8.71
2022-12-25T23:20:35.043Z,8.62
2022-12-25T23:23:21.055Z,8.72
2022-12-25T23:26:07.273Z,8.85
2022-12-25T23:28:57.801Z,8.78
2022-12-25T23:31:28.446Z,8.78
2022-12-25T23:33:55.547Z,8.82
2022-12-25T23:36:22.723Z,8.79
2022-12-25T23:38:50.308Z,8.72
2022-12-25T23:41:17.452Z,8.68
2022-12-25T23:43:44.524Z,8.63
2022-12-25T23:46:11.934Z,8.70
2022-12-25T23:48:39.091Z,8.83
2022-12-25T23:51:07.083Z,8.84
2022-12-25T23:53:34.779Z,8.71
2022-12-25T23:56:01.976Z,8.67
2022-12-25T23:58:29.554Z,8.69
